createdAt,value
2022-08-14T00:02:06.232Z,100901.00
2022-08-14T00:04:41.889Z,100911.00
2022-08-14T00:07:14.208Z,100904.00
2022-08-14T00:09:55.827Z,100898.00
2022-08-14T00:12:37.729Z,100902.00
2022-08-14T00:15:17.036Z,100908.00
2022-08-14T00:17:47.965Z,100910.00
2022-08-14T00:20:30.993Z,100909.00
2022-08-14T00:23:14.557Z,100908.00
2022-08-14T00:25:53.772Z,100896.00
2022-08-14T00:28:35.442Z,100887.00
2022-08-14T00:31:17.439Z,100895.00
2022-08-14T00:33:51.971Z,100894.00
2022-08-14T00:36:37.250Z,100892.00
2022-08-14T00:39:18.246Z,100891.00
2022-08-14T00:41:47.767Z,100889.00
2022-08-14T00:48:34.348Z,100874.00
2022-08-14T00:51:09.926Z,100872.00
2022-08-14T00:53:40.069Z,100865.00
2022-08-14T00:56:14.138Z,100863.00
2022-08-14T00:58:45.436Z,100865.00
2022-08-14T01:01:21.845Z,100855.00
2022-08-14T01:03:52.976Z,100854.00
2022-08-14T01:06:21.404Z,100851.00
2022-08-14T01:18:23.615Z,100844.00
2022-08-14T01:21:11.945Z,100828.00
2022-08-14T01:23:47.014Z,100832.00
2022-08-14T01:26:23.561Z,100823.00
2022-08-14T01:29:05.819Z,100819.00
2022-08-14T01:31:41.716Z,100816.00
2022-08-14T01:35:17.180Z,100811.00
2022-08-14T01:36:57.042Z,100799.00
2022-08-14T01:39:24.468Z,100808.00
2022-08-14T01:42:01.036Z,100804.00
2022-08-14T01:44:33.986Z,100801.00
2022-08-14T01:47:21.993Z,100802.00
2022-08-14T01:49:59.902Z,100798.00
2022-08-14T01:52:57.817Z,100803.00
2022-08-14T01:55:32.593Z,100798.00
2022-08-14T01:58:19.781Z,100801.00
2022-08-14T02:00:55.656Z,100797.00
2022-08-14T02:03:31.240Z,100798.00
2022-08-14T02:06:04.064Z,100805.00
2022-08-14T02:08:53.107Z,100804.00
2022-08-14T02:11:25.411Z,100796.00
2022-08-14T02:14:14.351Z,100791.00
2022-08-14T02:16:54.874Z,100789.00
2022-08-14T02:19:26.293Z,100779.00
2022-08-14T02:21:59.015Z,100782.00
2022-08-14T02:24:38.855Z,100785.00
2022-08-14T02:28:24.608Z,100790.00
2022-08-14T02:30:00.964Z,100786.00
2022-08-14T02:32:37.293Z,100792.00
2022-08-14T02:35:13.964Z,100797.00
2022-08-14T02:37:48.237Z,100799.00
2022-08-14T02:40:32.231Z,100782.00
2022-08-14T02:43:05.270Z,100803.00
2022-08-14T02:45:38.532Z,100792.00
2022-08-14T02:49:01.933Z,100789.00
2022-08-14T02:51:14.587Z,100791.00
2022-08-14T02:53:45.742Z,100778.00
2022-08-14T02:56:30.305Z,100785.00
2022-08-14T02:59:09.571Z,100777.00
2022-08-14T03:01:43.497Z,100773.00
2022-08-14T03:04:20.397Z,100758.00
2022-08-14T03:07:06.076Z,100771.00
2022-08-14T03:09:34.703Z,100774.00
2022-08-14T03:12:27.048Z,100775.00
2022-08-14T03:15:16.578Z,100767.00
2022-08-14T03:17:56.880Z,100766.00
2022-08-14T03:20:30.606Z,100770.00
2022-08-14T03:23:03.274Z,100762.00
2022-08-14T03:25:37.591Z,100763.00
2022-08-14T03:28:14.615Z,100759.00
2022-08-14T03:30:59.786Z,100769.00
2022-08-14T03:33:38.020Z,100760.00
2022-08-14T03:37:39.279Z,100756.00
2022-08-14T03:39:12.602Z,100762.00
2022-08-14T03:41:43.678Z,100753.00
2022-08-14T03:45:19.078Z,100746.00
2022-08-14T03:46:59.556Z,100748.00
2022-08-14T03:49:30.772Z,100748.00
2022-08-14T03:52:00.555Z,100754.00
2022-08-14T03:54:29.478Z,100755.00
2022-08-14T03:57:02.736Z,100754.00
2022-08-14T03:59:35.276Z,100749.00
2022-08-14T04:02:09.491Z,100759.00
2022-08-14T04:04:54.035Z,100753.00
2022-08-14T04:07:22.722Z,100749.00
2022-08-14T04:09:50.541Z,100752.00
2022-08-14T04:12:26.209Z,100741.00
2022-08-14T04:14:54.291Z,100745.00
2022-08-14T04:17:21.623Z,100738.00
2022-08-14T04:19:49.846Z,100738.00
2022-08-14T04:22:17.277Z,100750.00
2022-08-14T04:24:49.555Z,100739.00
2022-08-14T04:27:17.198Z,100743.00
2022-08-14T04:29:45.441Z,100734.00
2022-08-14T04:33:01.566Z,100726.00
2022-08-14T04:35:10.437Z,100729.00
2022-08-14T04:37:56.854Z,100729.00
2022-08-14T04:40:42.772Z,100731.00
2022-08-14T04:43:38.247Z,100724.00
2022-08-14T04:46:56.823Z,100725.00
2022-08-14T04:49:04.000Z,100721.00
2022-08-14T04:51:47.003Z,100710.00
2022-08-14T04:54:27.088Z,100703.00
2022-08-14T04:56:58.523Z,100710.00
2022-08-14T04:59:26.964Z,100710.00
2022-08-14T05:01:57.105Z,100710.00
2022-08-14T05:04:25.239Z,100709.00
2022-08-14T05:06:55.486Z,100706.00
2022-08-14T05:09:29.354Z,100703.00
2022-08-14T05:12:00.607Z,100700.00
2022-08-14T05:14:55.197Z,100702.00
2022-08-14T05:17:32.076Z,100688.00
2022-08-14T05:21:04.934Z,100686.00
2022-08-14T05:23:00.087Z,100702.00
2022-08-14T05:25:31.926Z,100693.00
2022-08-14T05:28:32.108Z,100691.00
2022-08-14T05:31:06.974Z,100677.00
2022-08-14T05:33:36.742Z,100687.00
2022-08-14T05:36:16.650Z,100672.00
2022-08-14T05:38:47.609Z,100689.00
2022-08-14T05:41:19.446Z,100682.00
2022-08-14T05:43:48.344Z,100681.00
2022-08-14T05:46:24.003Z,100687.00
2022-08-14T05:48:55.371Z,100680.00
2022-08-14T05:51:26.481Z,100673.00
2022-08-14T05:54:00.089Z,100674.00
2022-08-14T05:56:30.171Z,100677.00
2022-08-14T05:58:57.682Z,100674.00
2022-08-14T06:01:31.485Z,100673.00
2022-08-14T06:03:59.529Z,100679.00
2022-08-14T06:06:27.476Z,100678.00
2022-08-14T06:08:54.788Z,100681.00
2022-08-14T06:11:30.519Z,100689.00
2022-08-14T06:13:58.781Z,100678.00
2022-08-14T06:16:26.110Z,100683.00
2022-08-14T06:18:53.492Z,100678.00
2022-08-14T06:21:23.050Z,100673.00
2022-08-14T06:23:51.442Z,100677.00
2022-08-14T06:26:20.573Z,100666.00
2022-08-14T06:28:52.131Z,100669.00
2022-08-14T06:31:21.280Z,100666.00
2022-08-14T06:35:03.352Z,100662.00
2022-08-14T06:36:39.458Z,100664.00
2022-08-14T06:39:09.952Z,100665.00
2022-08-14T06:41:57.607Z,100664.00
2022-08-14T06:44:32.268Z,100668.00
2022-08-14T06:47:01.952Z,100664.00
2022-08-14T06:49:30.277Z,100670.00
2022-08-14T06:51:57.977Z,100672.00
2022-08-14T06:54:31.705Z,100668.00
2022-08-14T06:56:59.331Z,100659.00
2022-08-14T06:59:27.053Z,100646.00
2022-08-14T07:02:13.271Z,100651.00
2022-08-14T07:05:01.211Z,100642.00
2022-08-14T07:07:39.298Z,100637.00
2022-08-14T07:10:16.762Z,100639.00
2022-08-14T07:13:01.471Z,100628.00
2022-08-14T07:15:32.519Z,100625.00
2022-08-14T07:18:01.729Z,100617.00
2022-08-14T07:20:32.071Z,100616.00
2022-08-14T07:23:09.267Z,100626.00
2022-08-14T07:25:47.856Z,100620.00
2022-08-14T07:28:27.251Z,100611.00
2022-08-14T07:31:04.627Z,100614.00
2022-08-14T07:33:50.356Z,100605.00
2022-08-14T07:36:27.748Z,100609.00
2022-08-14T07:39:03.044Z,100614.00
2022-08-14T07:41:35.574Z,100615.00
2022-08-14T07:44:29.214Z,100605.00
2022-08-14T07:46:51.468Z,100615.00
2022-08-14T07:49:20.314Z,100615.00
2022-08-14T07:51:49.615Z,100602.00
2022-08-14T07:54:23.705Z,100606.00
2022-08-14T07:57:12.235Z,100600.00
2022-08-14T07:59:44.679Z,100609.00
2022-08-14T08:02:19.318Z,100601.00
2022-08-14T08:04:58.877Z,100601.00
2022-08-14T08:07:32.084Z,100603.00
2022-08-14T08:10:40.641Z,100612.00
2022-08-14T08:13:16.709Z,100610.00
2022-08-14T08:15:47.587Z,100609.00
2022-08-14T08:18:20.583Z,100612.00
2022-08-14T08:20:56.035Z,100616.00
2022-08-14T08:23:40.063Z,100623.00
2022-08-14T08:26:11.156Z,100623.00
2022-08-14T08:28:38.292Z,100620.00
2022-08-14T08:31:12.900Z,100617.00
2022-08-14T08:33:46.973Z,100617.00
2022-08-14T08:36:18.670Z,100617.00
2022-08-14T08:39:18.019Z,100613.00
2022-08-14T08:41:49.538Z,100612.00
2022-08-14T08:44:32.982Z,100611.00
2022-08-14T08:47:06.667Z,100618.00
2022-08-14T08:49:48.404Z,100618.00
2022-08-14T08:52:25.509Z,100604.00
2022-08-14T08:54:56.552Z,100598.00
2022-08-14T08:57:24.407Z,100596.00
2022-08-14T09:00:25.414Z,100593.00
2022-08-14T09:02:57.690Z,100579.00
2022-08-14T09:05:26.283Z,100571.00
2022-08-14T09:07:56.650Z,100569.00
2022-08-14T09:10:27.098Z,100571.00
2022-08-14T09:12:56.405Z,100571.00
2022-08-14T09:15:24.239Z,100565.00
2022-08-14T09:17:52.554Z,100569.00
2022-08-14T09:20:29.395Z,100564.00
2022-08-14T09:22:59.860Z,100558.00
2022-08-14T09:26:01.250Z,100554.00
2022-08-14T09:28:17.145Z,100548.00
2022-08-14T09:30:57.716Z,100544.00
2022-08-14T09:33:56.652Z,100550.00
2022-08-14T09:37:07.402Z,100552.00
2022-08-14T09:40:16.779Z,100532.00
2022-08-14T09:43:10.315Z,100535.00
2022-08-14T09:45:53.526Z,100540.00
2022-08-14T09:48:27.488Z,100534.00
2022-08-14T09:54:19.312Z,100523.00
2022-08-14T09:56:56.792Z,100525.00
2022-08-14T09:59:33.460Z,100520.00
2022-08-14T10:02:03.374Z,100524.00
2022-08-14T10:04:33.720Z,100520.00
2022-08-14T10:07:05.270Z,100520.00
2022-08-14T10:09:33.578Z,100517.00
2022-08-14T10:12:04.368Z,100515.00
2022-08-14T10:14:36.606Z,100502.00
2022-08-14T10:17:08.513Z,100508.00
2022-08-14T10:19:46.985Z,100507.00
2022-08-14T10:23:21.874Z,100504.00
2022-08-14T10:25:15.595Z,100500.00
2022-08-14T10:27:46.807Z,100498.00
2022-08-14T10:30:22.370Z,100504.00
2022-08-14T10:32:55.540Z,100498.00
2022-08-14T10:35:31.748Z,100496.00
2022-08-14T10:38:01.484Z,100484.00
2022-08-14T10:40:37.790Z,100488.00
2022-08-14T10:43:26.790Z,100490.00
2022-08-14T10:47:37.009Z,100483.00
2022-08-14T10:49:06.496Z,100477.00
2022-08-14T10:51:39.712Z,100480.00
2022-08-14T10:54:17.177Z,100468.00
2022-08-14T10:57:20.461Z,100469.00
2022-08-14T11:00:20.767Z,100468.00
2022-08-14T11:03:19.904Z,100467.00
2022-08-14T11:05:55.582Z,100463.00
2022-08-14T11:08:34.297Z,100460.00
2022-08-14T11:11:21.138Z,100462.00
2022-08-14T11:13:57.524Z,100459.00
2022-08-14T11:16:27.035Z,100463.00
2022-08-14T11:18:59.732Z,100474.00
2022-08-14T11:21:30.341Z,100468.00
2022-08-14T11:24:55.048Z,100458.00
2022-08-14T11:26:53.604Z,100456.00
2022-08-14T11:29:24.578Z,100447.00
2022-08-14T11:31:57.014Z,100437.00
2022-08-14T11:34:32.199Z,100444.00
2022-08-14T11:37:22.948Z,100449.00
2022-08-14T11:39:59.144Z,100440.00
2022-08-14T11:42:58.784Z,100440.00
2022-08-14T11:45:23.203Z,100430.00
2022-08-14T11:48:13.090Z,100433.00
2022-08-14T11:50:49.396Z,100433.00
2022-08-14T11:53:31.383Z,100425.00
2022-08-14T11:56:05.472Z,100421.00
2022-08-14T11:58:38.240Z,100411.00
2022-08-14T12:01:09.573Z,100406.00
2022-08-14T12:03:52.164Z,100402.00
2022-08-14T12:06:29.310Z,100409.00
2022-08-14T12:09:03.054Z,100399.00
2022-08-14T12:11:47.513Z,100404.00
2022-08-14T12:14:29.097Z,100386.00
2022-08-14T12:17:11.928Z,100384.00
2022-08-14T12:19:54.247Z,100381.00
2022-08-14T12:22:44.793Z,100381.00
2022-08-14T12:25:19.672Z,100381.00
2022-08-14T12:27:52.517Z,100383.00
2022-08-14T12:30:43.118Z,100376.00
2022-08-14T12:33:33.869Z,100374.00
2022-08-14T12:36:08.851Z,100366.00
2022-08-14T12:38:43.524Z,100356.00
2022-08-14T12:41:22.016Z,100346.00
2022-08-14T12:43:59.898Z,100353.00
2022-08-14T12:46:33.815Z,100335.00
2022-08-14T12:49:11.863Z,100338.00
2022-08-14T12:51:44.832Z,100335.00
2022-08-14T12:54:27.583Z,100323.00
2022-08-14T12:57:19.804Z,100322.00
2022-08-14T12:59:49.212Z,100331.00
2022-08-14T13:02:26.982Z,100330.00
2022-08-14T13:04:58.140Z,100322.00
2022-08-14T13:07:32.746Z,100312.00
2022-08-14T13:10:46.850Z,100321.00
2022-08-14T13:13:12.519Z,100312.00
2022-08-14T13:15:40.654Z,100308.00
2022-08-14T13:18:10.620Z,100313.00
2022-08-14T13:20:48.127Z,100317.00
2022-08-14T13:23:30.364Z,100313.00
2022-08-14T13:25:59.834Z,100308.00
2022-08-14T13:28:32.776Z,100305.00
2022-08-14T13:31:11.033Z,100297.00
2022-08-14T13:33:40.888Z,100292.00
2022-08-14T13:36:10.211Z,100289.00
2022-08-14T13:38:52.329Z,100292.00
2022-08-14T13:41:28.035Z,100288.00
2022-08-14T13:44:03.429Z,100294.00
2022-08-14T13:46:30.540Z,100284.00
2022-08-14T13:49:01.578Z,100281.00
2022-08-14T13:51:38.428Z,100280.00
2022-08-14T13:54:10.879Z,100271.00
2022-08-14T13:56:42.025Z,100276.00
2022-08-14T13:59:10.519Z,100272.00
2022-08-14T14:01:44.000Z,100269.00
2022-08-14T14:04:19.967Z,100270.00
2022-08-14T14:06:52.260Z,100268.00
2022-08-14T14:09:32.394Z,100264.00
2022-08-14T14:12:08.030Z,100259.00
2022-08-14T14:14:56.522Z,100256.00
2022-08-14T14:17:25.393Z,100247.00
2022-08-14T14:19:58.631Z,100243.00
2022-08-14T14:22:35.592Z,100250.00
2022-08-14T14:25:22.190Z,100247.00
2022-08-14T14:27:53.287Z,100256.00
2022-08-14T14:30:46.564Z,100251.00
2022-08-14T14:33:42.129Z,100250.00
2022-08-14T14:36:04.970Z,100254.00
2022-08-14T14:38:34.323Z,100246.00
2022-08-14T14:41:05.609Z,100248.00
2022-08-14T14:43:36.138Z,100247.00
2022-08-14T14:46:09.640Z,100243.00
2022-08-14T14:48:54.182Z,100259.00
2022-08-14T14:51:22.251Z,100249.00
2022-08-14T14:53:49.748Z,100248.00
2022-08-14T14:56:50.580Z,100245.00
2022-08-14T14:59:06.171Z,100243.00
2022-08-14T15:01:37.015Z,100252.00
2022-08-14T15:04:20.044Z,100245.00
2022-08-14T15:06:50.035Z,100245.00
2022-08-14T15:09:18.481Z,100237.00
2022-08-14T15:11:47.714Z,100223.00
2022-08-14T15:14:56.166Z,100236.00
2022-08-14T15:17:03.002Z,100218.00
2022-08-14T15:19:32.153Z,100221.00
2022-08-14T15:21:59.415Z,100213.00
2022-08-14T15:24:27.218Z,100211.00
2022-08-14T15:26:58.520Z,100214.00
2022-08-14T15:29:27.482Z,100208.00
2022-08-14T15:31:54.742Z,100209.00
2022-08-14T15:34:45.752Z,100211.00
2022-08-14T15:37:12.654Z,100207.00
2022-08-14T15:39:41.211Z,100194.00
2022-08-14T15:42:14.478Z,100194.00
2022-08-14T15:44:58.047Z,100188.00
2022-08-14T15:47:31.454Z,100193.00
2022-08-14T15:50:01.626Z,100191.00
2022-08-14T15:52:37.398Z,100188.00
2022-08-14T15:55:10.190Z,100181.00
2022-08-14T15:58:02.381Z,100187.00
2022-08-14T16:00:49.359Z,100185.00
2022-08-14T16:03:25.327Z,100180.00
2022-08-14T16:06:01.893Z,100178.00
2022-08-14T16:08:30.849Z,100169.00
2022-08-14T16:11:01.318Z,100173.00
2022-08-14T16:13:41.183Z,100177.00
2022-08-14T16:16:47.056Z,100179.00
2022-08-14T16:19:11.459Z,100181.00
2022-08-14T16:22:02.274Z,100182.00
2022-08-14T16:24:33.360Z,100174.00
2022-08-14T16:27:03.526Z,100177.00
2022-08-14T16:29:36.351Z,100166.00
2022-08-14T16:32:33.452Z,100173.00
2022-08-14T16:34:57.349Z,100180.00
2022-08-14T16:37:30.693Z,100175.00
2022-08-14T16:40:00.730Z,100177.00
2022-08-14T16:43:02.436Z,100185.00
2022-08-14T16:45:26.533Z,100176.00
2022-08-14T16:47:55.385Z,100172.00
2022-08-14T16:50:40.442Z,100167.00
2022-08-14T16:53:17.200Z,100156.00
2022-08-14T16:55:50.995Z,100160.00
2022-08-14T16:58:30.312Z,100160.00
2022-08-14T17:01:25.115Z,100159.00
2022-08-14T17:04:24.430Z,100158.00
2022-08-14T17:06:56.014Z,100155.00
2022-08-14T17:09:30.946Z,100156.00
2022-08-14T17:12:28.956Z,100154.00
2022-08-14T17:15:11.195Z,100137.00
2022-08-14T17:17:57.481Z,100145.00
2022-08-14T17:20:54.802Z,100147.00
2022-08-14T17:23:14.941Z,100139.00
2022-08-14T17:25:50.896Z,100141.00
2022-08-14T17:28:52.462Z,100139.00
2022-08-14T17:31:12.288Z,100141.00
2022-08-14T17:33:44.687Z,100145.00
2022-08-14T17:36:24.279Z,100124.00
2022-08-14T17:39:13.315Z,100138.00
2022-08-14T17:42:01.775Z,100128.00
2022-08-14T17:44:45.637Z,100135.00
2022-08-14T17:47:18.018Z,100134.00
2022-08-14T17:49:52.243Z,100135.00
2022-08-14T17:52:34.938Z,100134.00
2022-08-14T17:55:12.735Z,100136.00
2022-08-14T17:57:59.359Z,100139.00
2022-08-14T18:00:28.571Z,100134.00
2022-08-14T18:02:59.242Z,100137.00
2022-08-14T18:06:08.646Z,100133.00
2022-08-14T18:08:33.733Z,100126.00
2022-08-14T18:11:03.804Z,100137.00
2022-08-14T18:13:51.920Z,100129.00
2022-08-14T18:16:23.537Z,100133.00
2022-08-14T18:18:54.891Z,100135.00
2022-08-14T18:21:56.881Z,100130.00
2022-08-14T18:24:29.753Z,100123.00
2022-08-14T18:27:15.104Z,100133.00
2022-08-14T18:29:58.044Z,100132.00
2022-08-14T18:32:28.087Z,100135.00
2022-08-14T18:35:11.485Z,100129.00
2022-08-14T18:37:42.818Z,100128.00
2022-08-14T18:40:34.687Z,100129.00
2022-08-14T18:43:05.151Z,100133.00
2022-08-14T18:45:42.969Z,100136.00
2022-08-14T18:48:20.990Z,100125.00
2022-08-14T18:51:10.701Z,100133.00
2022-08-14T18:53:57.169Z,100136.00
2022-08-14T18:57:01.767Z,100136.00
2022-08-14T18:59:40.239Z,100140.00
2022-08-14T19:02:30.687Z,100133.00
2022-08-14T19:05:02.463Z,100139.00
2022-08-14T19:07:33.921Z,100133.00
2022-08-14T19:10:07.200Z,100137.00
2022-08-14T19:12:53.441Z,100135.00
2022-08-14T19:15:26.097Z,100130.00
2022-08-14T19:18:14.937Z,100130.00
2022-08-14T19:20:49.212Z,100142.00
2022-08-14T19:23:42.669Z,100134.00
2022-08-14T19:26:35.349Z,100133.00
2022-08-14T19:29:37.875Z,100138.00
2022-08-14T19:32:40.205Z,100140.00
2022-08-14T19:35:48.427Z,100136.00
2022-08-14T19:38:52.135Z,100133.00
2022-08-14T19:41:52.077Z,100130.00
2022-08-14T19:44:31.651Z,100133.00
2022-08-14T19:47:04.781Z,100143.00
2022-08-14T19:50:09.025Z,100137.00
2022-08-14T19:52:39.729Z,100137.00
2022-08-14T19:55:20.279Z,100140.00
2022-08-14T19:57:52.347Z,100138.00
2022-08-14T20:00:29.450Z,100139.00
2022-08-14T20:03:10.964Z,100131.00
2022-08-14T20:05:45.802Z,100132.00
2022-08-14T20:09:05.351Z,100135.00
2022-08-14T20:11:43.325Z,100132.00
2022-08-14T20:14:20.589Z,100134.00
2022-08-14T20:17:04.957Z,100136.00
2022-08-14T20:19:37.411Z,100134.00
2022-08-14T20:22:36.565Z,100132.00
2022-08-14T20:25:21.850Z,100130.00
2022-08-14T20:27:59.568Z,100131.00
2022-08-14T20:30:33.536Z,100126.00
2022-08-14T20:33:14.280Z,100123.00
2022-08-14T20:35:47.619Z,100123.00
2022-08-14T20:38:30.438Z,100124.00
2022-08-14T20:41:09.681Z,100125.00
2022-08-14T20:43:59.487Z,100122.00
2022-08-14T20:46:38.820Z,100123.00
2022-08-14T20:49:19.283Z,100120.00
2022-08-14T20:52:00.062Z,100115.00
2022-08-14T20:54:37.061Z,100119.00
2022-08-14T20:57:18.243Z,100118.00
2022-08-14T20:59:57.397Z,100108.00
2022-08-14T21:02:46.554Z,100110.00
2022-08-14T21:05:34.193Z,100116.00
2022-08-14T21:08:08.329Z,100108.00
2022-08-14T21:10:44.023Z,100101.00
2022-08-14T21:13:27.452Z,100104.00
2022-08-14T21:16:34.612Z,100096.00
2022-08-14T21:18:58.898Z,100091.00
2022-08-14T21:21:41.851Z,100105.00
2022-08-14T21:24:38.765Z,100095.00
2022-08-14T21:27:12.837Z,100090.00
2022-08-14T21:29:53.877Z,100091.00
2022-08-14T21:32:34.661Z,100091.00
2022-08-14T21:35:08.164Z,100085.00
2022-08-14T21:38:01.039Z,100092.00
2022-08-14T21:40:42.132Z,100097.00
2022-08-14T21:43:18.169Z,100091.00
2022-08-14T21:45:53.235Z,100093.00
2022-08-14T21:48:29.264Z,100099.00
2022-08-14T21:51:52.949Z,100086.00
2022-08-14T21:53:58.595Z,100087.00
2022-08-14T21:56:38.720Z,100076.00
2022-08-14T21:59:18.421Z,100081.00
2022-08-14T22:01:59.440Z,100089.00
2022-08-14T22:04:40.591Z,100086.00
2022-08-14T22:07:16.698Z,100088.00
2022-08-14T22:09:45.701Z,100080.00
2022-08-14T22:12:47.339Z,100078.00
2022-08-14T22:15:17.026Z,100078.00
2022-08-14T22:17:54.664Z,100063.00
2022-08-14T22:20:28.957Z,100074.00
2022-08-14T22:22:59.368Z,100066.00
2022-08-14T22:25:33.114Z,100076.00
2022-08-14T22:28:04.384Z,100061.00
2022-08-14T22:30:33.752Z,100057.00
2022-08-14T22:33:01.755Z,100054.00
2022-08-14T22:35:29.911Z,100054.00
2022-08-14T22:38:34.580Z,100047.00
2022-08-14T22:41:07.858Z,100048.00
2022-08-14T22:43:36.918Z,100052.00
2022-08-14T22:46:15.124Z,100050.00
2022-08-14T22:48:49.352Z,100041.00
2022-08-14T22:51:21.804Z,100043.00
2022-08-14T22:53:54.593Z,100041.00
2022-08-14T22:56:30.128Z,100032.00
2022-08-14T22:59:02.155Z,100026.00
2022-08-14T23:01:55.775Z,100028.00
2022-08-14T23:04:34.996Z,100030.00
2022-08-14T23:07:22.473Z,100029.00
2022-08-14T23:09:57.822Z,100033.00
2022-08-14T23:12:54.190Z,100029.00
2022-08-14T23:15:28.929Z,100033.00
2022-08-14T23:17:57.854Z,100014.00
2022-08-14T23:20:29.418Z,100037.00
2022-08-14T23:22:58.134Z,100043.00
2022-08-14T23:25:57.592Z,100021.00
2022-08-14T23:28:34.256Z,100040.00
2022-08-14T23:31:34.446Z,100042.00
2022-08-14T23:34:08.971Z,100014.00
2022-08-14T23:36:54.201Z,100036.00
2022-08-14T23:39:30.215Z,100023.00
2022-08-14T23:42:07.632Z,100031.00
2022-08-14T23:44:38.186Z,100019.00
2022-08-14T23:47:11.496Z,100022.00
2022-08-14T23:50:00.410Z,100018.00
2022-08-14T23:52:51.192Z,100016.00
2022-08-14T23:55:22.981Z,100014.00
2022-08-14T23:57:57.645Z,100010.00
